Time;durP1;ratioP1;P1;durP2;ratioP2;P2;SDS_P1;SDS_P2;PMS_P1;PMS_P2;Temp;Humidity;BMP_temperature;BMP_pressure;BME280_temperature;BME280_humidity;BME280_pressure;Samples;Min_cycle;Max_cycle;Signal;HPM_P1;HPM_P2
2022/04/18 00:00:09;;;;;;;1.98;1.40;;;;;;;6.90;100.00;100989.63;5097066;28;20106;-47
2022/04/18 00:02:35;;;;;;;1.77;1.23;;;;;;;6.91;100.00;100995.72;5091330;28;20456;-50
2022/04/18 00:05:01;;;;;;;3.65;2.03;;;;;;;6.95;100.00;100994.44;5098787;28;20110;-48
2022/04/18 00:07:26;;;;;;;1.50;0.68;;;;;;;6.99;100.00;100993.16;5093174;28;20066;-49
2022/04/18 00:09:52;;;;;;;2.47;1.90;;;;;;;7.07;100.00;100980.00;5091497;28;20051;-47
2022/04/18 00:12:18;;;;;;;1.77;1.08;;;;;;;7.15;100.00;100988.00;5077570;28;20031;-49
2022/04/18 00:14:44;;;;;;;2.33;1.67;;;;;;;7.26;100.00;100983.44;5091194;28;20289;-50
2022/04/18 00:17:10;;;;;;;2.15;1.23;;;;;;;7.37;100.00;100983.97;5094938;28;20024;-50
2022/04/18 00:19:39;;;;;;;2.35;1.50;;;;;;;7.47;100.00;100981.22;5094211;28;20077;-48
2022/04/18 00:22:05;;;;;;;3.17;2.15;;;;;;;7.55;100.00;100980.44;5090572;28;20403;-51
2022/04/18 00:24:31;;;;;;;2.08;1.50;;;;;;;7.63;100.00;100973.34;5094503;28;20027;-49
2022/04/18 00:26:56;;;;;;;4.57;2.40;;;;;;;7.71;100.00;100975.19;5095399;28;20115;-47
2022/04/18 00:29:22;;;;;;;3.22;1.45;;;;;;;7.80;100.00;100976.06;5094380;28;20040;-48
2022/04/18 00:31:47;;;;;;;2.78;1.52;;;;;;;7.89;100.00;100982.19;5096367;28;20032;-47
2022/04/18 00:34:14;;;;;;;3.83;2.00;;;;;;;7.95;100.00;100977.09;5097740;28;20024;-50
2022/04/18 00:36:40;;;;;;;3.50;1.30;;;;;;;7.97;100.00;100966.34;5087409;28;20031;-47
2022/04/18 00:39:05;;;;;;;5.60;2.42;;;;;;;7.99;100.00;100962.56;5097985;28;20020;-52
2022/04/18 00:41:31;;;;;;;5.35;2.72;;;;;;;8.01;100.00;100968.50;5094725;28;20032;-50
2022/04/18 00:43:56;;;;;;;2.80;2.10;;;;;;;8.11;100.00;100967.56;5099478;28;20027;-51
2022/04/18 00:46:21;;;;;;;4.55;2.65;;;;;;;8.16;100.00;100971.34;5100697;28;20031;-50
2022/04/18 00:48:48;;;;;;;3.67;2.03;;;;;;;8.23;100.00;100960.94;5099340;28;20066;-47
2022/04/18 00:51:16;;;;;;;3.22;1.98;;;;;;;8.33;100.00;100964.25;5099719;28;20111;-47
2022/04/18 00:53:43;;;;;;;3.63;2.10;;;;;;;8.46;100.00;100961.97;5093315;28;20035;-52
2022/04/18 00:56:12;;;;;;;3.97;2.50;;;;;;;8.48;100.00;100952.06;5097820;28;20073;-47
2022/04/18 00:58:39;;;;;;;5.18;3.45;;;;;;;8.57;100.00;100957.34;5098347;28;20034;-48
2022/04/18 01:01:04;;;;;;;6.47;4.15;;;;;;;8.63;100.00;100954.88;5101615;28;20032;-47
2022/04/18 01:03:30;;;;;;;5.95;3.60;;;;;;;8.67;100.00;100955.34;5096347;28;20373;-51
2022/04/18 01:06:00;;;;;;;7.53;3.53;;;;;;;8.70;100.00;100953.22;5102672;28;20040;-47
2022/04/18 01:08:27;;;;;;;5.43;4.05;;;;;;;8.74;100.00;100948.41;5099821;28;20027;-49
2022/04/18 01:10:54;;;;;;;5.35;4.00;;;;;;;8.74;100.00;100949.22;5080826;28;20027;-47
2022/04/18 01:13:19;;;;;;;4.75;3.60;;;;;;;8.80;100.00;100947.72;5100892;28;20020;-53
2022/04/18 01:15:45;;;;;;;6.18;3.67;;;;;;;8.81;100.00;100941.47;5102936;28;20032;-47
2022/04/18 01:18:10;;;;;;;8.80;4.10;;;;;;;8.83;100.00;100936.84;5095060;28;20469;-48
2022/04/18 01:20:36;;;;;;;4.95;3.80;;;;;;;8.83;100.00;100939.50;5098108;28;20050;-48
2022/04/18 01:23:05;;;;;;;5.75;3.13;;;;;;;8.83;100.00;100936.00;5097215;28;20032;-47
2022/04/18 01:30:58;;;;;;;5.05;3.08;;;;;;;8.78;100.00;100938.31;5093095;28;20074;-47
2022/04/18 01:33:23;;;;;;;6.75;3.38;;;;;;;8.78;100.00;100933.88;5100402;28;20091;-49
2022/04/18 01:35:49;;;;;;;6.95;3.67;;;;;;;8.77;100.00;100932.22;5100649;28;20028;-47
2022/04/18 01:38:14;;;;;;;6.85;4.32;;;;;;;8.73;100.00;100933.56;5099084;28;20031;-51
2022/04/18 01:40:39;;;;;;;6.40;3.25;;;;;;;8.72;100.00;100938.03;5105348;28;20023;-48
2022/04/18 01:43:06;;;;;;;6.63;4.50;;;;;;;8.72;100.00;100937.19;5096886;28;20020;-48
2022/04/18 01:45:31;;;;;;;6.18;3.25;;;;;;;8.70;100.00;100942.66;5103968;28;20090;-48
2022/04/18 01:47:57;;;;;;;10.13;5.00;;;;;;;8.67;100.00;100943.00;5088315;28;20039;-48
2022/04/18 01:50:22;;;;;;;10.55;3.65;;;;;;;8.57;100.00;100942.34;5097073;28;20043;-48
2022/04/18 01:52:47;;;;;;;5.85;3.47;;;;;;;8.44;100.00;100940.19;5095531;28;20030;-47
2022/04/18 01:55:12;;;;;;;13.40;5.40;;;;;;;8.38;100.00;100934.69;5105959;28;20024;-49
2022/04/18 01:57:38;;;;;;;8.27;4.25;;;;;;;8.31;100.00;100929.25;5100318;28;20415;-51
2022/04/18 02:00:04;;;;;;;7.78;4.88;;;;;;;8.28;100.00;100929.56;5093900;28;20044;-47
2022/04/18 02:02:29;;;;;;;7.28;4.32;;;;;;;8.26;100.00;100931.53;5104676;28;20043;-47
2022/04/18 02:04:54;;;;;;;7.53;4.50;;;;;;;8.24;100.00;100934.38;5109335;28;20038;-49
2022/04/18 02:07:21;;;;;;;3.42;2.75;;;;;;;8.15;100.00;100935.34;5096280;28;20113;-50
2022/04/18 02:09:46;;;;;;;3.03;2.28;;;;;;;7.99;100.00;100920.31;5103170;28;20032;-49
2022/04/18 02:12:12;;;;;;;4.70;3.03;;;;;;;7.81;100.00;100922.25;5106114;28;20023;-47
2022/04/18 02:14:37;;;;;;;11.32;4.60;;;;;;;7.61;100.00;100917.25;5102139;28;20055;-48
2022/04/18 02:17:02;;;;;;;5.53;3.63;;;;;;;7.44;100.00;100923.50;5097443;28;20030;-47
2022/04/18 02:19:28;;;;;;;7.43;5.50;;;;;;;7.34;100.00;100922.78;5090426;28;20325;-47
2022/04/18 02:21:53;;;;;;;6.10;3.85;;;;;;;7.26;100.00;100925.41;5102564;28;20028;-49
2022/04/18 02:24:18;;;;;;;5.40;3.97;;;;;;;7.14;100.00;100923.03;5107595;28;20139;-51
2022/04/18 02:26:44;;;;;;;5.35;3.33;;;;;;;6.97;100.00;100929.22;5100029;28;20077;-48
2022/04/18 02:29:09;;;;;;;6.75;3.55;;;;;;;6.77;100.00;100931.25;5091179;28;20059;-48
2022/04/18 02:32:47;;;;;;;3.65;2.55;;;;;;;6.61;100.00;100936.38;5100709;28;20463;-53
2022/04/18 02:34:20;;;;;;;6.03;3.10;;;;;;;6.43;100.00;100932.00;5104582;28;20472;-50
2022/04/18 02:36:45;;;;;;;5.07;2.90;;;;;;;6.27;100.00;100935.31;5102466;28;20030;-48
2022/04/18 02:39:10;;;;;;;4.10;2.58;;;;;;;6.11;100.00;100935.16;5096154;28;20043;-49
2022/04/18 02:41:36;;;;;;;8.27;4.10;;;;;;;6.00;100.00;100930.13;5100981;28;20063;-50
2022/04/18 02:44:01;;;;;;;5.10;3.17;;;;;;;5.84;100.00;100928.97;5080223;28;20034;-49
2022/04/18 02:46:26;;;;;;;6.13;3.35;;;;;;;5.74;100.00;100919.47;5094433;28;20388;-49
2022/04/18 02:48:53;;;;;;;6.35;2.90;;;;;;;5.63;100.00;100925.78;5079189;28;20122;-50
2022/04/18 02:51:19;;;;;;;3.95;2.65;;;;;;;5.53;100.00;100925.00;5096308;28;20488;-48
2022/04/18 02:53:44;;;;;;;6.18;3.60;;;;;;;5.40;100.00;100926.19;5099554;28;20077;-51
2022/04/18 02:56:10;;;;;;;7.00;4.03;;;;;;;5.27;100.00;100937.97;5093294;28;20110;-49
2022/04/18 02:58:35;;;;;;;6.03;3.53;;;;;;;5.13;100.00;100934.03;5093240;28;20016;-47
2022/04/18 03:01:01;;;;;;;3.72;2.55;;;;;;;5.02;100.00;100932.44;5104933;28;20387;-47
2022/04/18 03:03:26;;;;;;;6.20;2.45;;;;;;;4.89;100.00;100934.53;5099524;28;20032;-51
2022/04/18 03:05:51;;;;;;;3.47;2.28;;;;;;;4.78;100.00;100943.44;5090729;28;20543;-51
2022/04/18 03:08:17;;;;;;;4.00;2.38;;;;;;;4.68;100.00;100946.06;5091860;28;20032;-50
2022/04/18 03:13:26;;;;;;;7.55;3.38;;;;;;;4.42;100.00;100951.09;5098661;28;20058;-47
2022/04/18 03:15:51;;;;;;;7.40;3.72;;;;;;;4.29;100.00;100951.38;5092101;28;20110;-47
2022/04/18 03:18:17;;;;;;;5.05;3.17;;;;;;;4.21;100.00;100947.75;5090585;28;20036;-47
2022/04/18 03:20:42;;;;;;;8.95;3.58;;;;;;;4.12;100.00;100955.50;5102004;28;20036;-47
2022/04/18 03:23:07;;;;;;;5.07;3.20;;;;;;;4.04;100.00;100955.34;5099951;28;20038;-47
2022/04/18 03:25:33;;;;;;;7.25;3.17;;;;;;;3.96;100.00;100955.22;5090308;28;20024;-46
2022/04/18 03:27:58;;;;;;;4.35;3.15;;;;;;;3.82;100.00;100955.59;5093136;28;20038;-47
2022/04/18 03:30:23;;;;;;;5.22;2.20;;;;;;;3.74;100.00;100963.31;5106349;28;20062;-47
2022/04/18 03:32:49;;;;;;;2.80;2.35;;;;;;;3.66;100.00;100963.97;5099694;28;20031;-48
2022/04/18 03:35:14;;;;;;;6.07;2.92;;;;;;;3.60;100.00;100962.72;5090997;28;20085;-48
2022/04/18 03:40:23;;;;;;;4.03;2.80;;;;;;;3.56;100.00;100960.50;5098896;28;20612;-48
2022/04/18 03:42:48;;;;;;;5.47;3.13;;;;;;;3.46;100.00;100963.13;5097939;28;20040;-48
2022/04/18 03:45:14;;;;;;;5.53;3.50;;;;;;;3.39;100.00;100962.81;5097520;28;20074;-50
2022/04/18 03:47:39;;;;;;;7.13;2.65;;;;;;;3.32;100.00;100971.31;5096753;28;20024;-48
2022/04/18 03:50:05;;;;;;;5.93;3.22;;;;;;;3.28;100.00;100971.59;5096151;28;20153;-50
2022/04/18 03:52:30;;;;;;;7.18;3.50;;;;;;;3.21;100.00;100959.97;5092042;28;20046;-49
2022/04/18 03:54:56;;;;;;;4.78;2.78;;;;;;;3.16;100.00;100964.78;5077580;28;20039;-49
2022/04/18 03:57:21;;;;;;;3.95;3.25;;;;;;;3.08;100.00;100972.47;5096887;28;20027;-52
2022/04/18 03:59:47;;;;;;;4.70;3.88;;;;;;;3.03;100.00;100969.41;5096906;28;20028;-51
2022/04/18 04:02:13;;;;;;;2.60;2.20;;;;;;;2.96;100.00;100971.69;5096870;28;20028;-46
2022/04/18 04:04:38;;;;;;;7.63;3.97;;;;;;;2.88;100.00;100968.91;5108301;28;20116;-48
2022/04/18 04:07:04;;;;;;;4.32;2.40;;;;;;;2.80;100.00;100977.41;5096464;28;20067;-47
2022/04/18 04:09:30;;;;;;;5.47;3.85;;;;;;;2.76;100.00;100973.41;5097416;28;20040;-49
2022/04/18 04:11:55;;;;;;;7.65;4.18;;;;;;;2.72;100.00;100974.59;5094903;28;20378;-48
2022/04/18 04:14:21;;;;;;;7.38;3.72;;;;;;;2.65;100.00;100978.69;5105323;28;20042;-48
2022/04/18 04:16:46;;;;;;;5.20;2.60;;;;;;;2.61;100.00;100967.63;5096339;28;20070;-47
2022/04/18 04:19:11;;;;;;;5.03;3.65;;;;;;;2.63;100.00;100972.72;5098844;28;20380;-51
2022/04/18 04:21:37;;;;;;;5.20;2.60;;;;;;;2.61;100.00;100974.66;5094303;28;20036;-50
2022/04/18 04:24:02;;;;;;;4.85;3.65;;;;;;;2.59;100.00;100973.97;5107106;28;20038;-53
2022/04/18 04:26:28;;;;;;;6.40;2.70;;;;;;;2.59;100.00;100979.19;5084426;28;20417;-48
2022/04/18 04:28:54;;;;;;;6.32;3.58;;;;;;;2.59;100.00;100976.59;5097658;28;20038;-48
2022/04/18 04:31:19;;;;;;;6.35;3.55;;;;;;;2.58;100.00;100972.28;5099534;28;20410;-47
2022/04/18 04:33:44;;;;;;;6.28;3.10;;;;;;;2.58;100.00;100972.28;5103792;28;20419;-47
2022/04/18 04:36:12;;;;;;;6.28;3.92;;;;;;;2.55;100.00;100972.53;5105574;28;20023;-47
2022/04/18 04:38:38;;;;;;;7.20;3.70;;;;;;;2.42;100.00;100967.50;5100451;28;20035;-47
2022/04/18 04:41:03;;;;;;;8.73;4.47;;;;;;;2.37;100.00;100969.66;5099063;28;20028;-47
2022/04/18 04:43:29;;;;;;;5.03;3.45;;;;;;;2.36;100.00;100978.47;5102074;28;20024;-49
2022/04/18 04:45:56;;;;;;;5.22;3.10;;;;;;;2.36;100.00;100979.28;5093622;28;20111;-50
2022/04/18 04:48:22;;;;;;;5.18;3.33;;;;;;;2.33;100.00;100982.16;5095986;28;20318;-50
2022/04/18 04:50:47;;;;;;;7.82;4.82;;;;;;;2.31;100.00;100978.00;5104126;28;20047;-49
2022/04/18 04:53:13;;;;;;;7.57;3.90;;;;;;;2.26;100.00;100973.16;5107311;28;20031;-48
2022/04/18 04:55:38;;;;;;;6.25;3.08;;;;;;;2.27;100.00;100980.06;5094841;28;20484;-48
2022/04/18 04:58:03;;;;;;;4.65;3.28;;;;;;;2.25;100.00;100975.91;5105756;28;20047;-50
2022/04/18 05:00:29;;;;;;;4.70;2.90;;;;;;;2.27;100.00;100979.22;5095912;28;20520;-47
2022/04/18 05:02:57;;;;;;;8.15;4.38;;;;;;;2.21;100.00;100974.50;5106974;28;20027;-51
2022/04/18 05:05:23;;;;;;;8.65;2.90;;;;;;;2.19;100.00;100979.81;5095323;28;20024;-47
2022/04/18 05:07:49;;;;;;;5.47;3.15;;;;;;;2.18;100.00;100975.56;5094892;28;20488;-49
2022/04/18 05:10:15;;;;;;;6.15;2.90;;;;;;;2.20;100.00;100980.69;5101268;28;20518;-49
2022/04/18 05:12:41;;;;;;;5.78;2.75;;;;;;;2.20;100.00;100984.13;5105270;28;20047;-50
2022/04/18 05:15:07;;;;;;;7.25;3.45;;;;;;;2.17;100.00;100994.84;5095502;28;20026;-47
2022/04/18 05:17:32;;;;;;;5.03;2.97;;;;;;;2.14;100.00;100995.94;5093487;28;20039;-49
2022/04/18 05:19:58;;;;;;;6.90;3.25;;;;;;;2.12;100.00;100997.00;5085542;28;20023;-49
2022/04/18 05:22:24;;;;;;;5.88;2.40;;;;;;;2.15;100.00;100996.75;5102276;28;20057;-49
2022/04/18 05:24:50;;;;;;;5.18;3.10;;;;;;;2.22;100.00;100999.69;5103702;28;20106;-50
2022/04/18 05:27:15;;;;;;;4.93;3.10;;;;;;;2.25;100.00;100989.81;5098279;28;20024;-49
2022/04/18 05:29:42;;;;;;;4.13;2.65;;;;;;;2.35;100.00;100992.50;5103844;28;20040;-50
2022/04/18 05:32:08;;;;;;;5.65;3.38;;;;;;;2.42;100.00;100993.66;5101786;28;20073;-50
2022/04/18 05:34:33;;;;;;;22.15;6.47;;;;;;;2.49;100.00;100996.63;5099361;28;20071;-51
2022/04/18 05:36:59;;;;;;;6.85;4.85;;;;;;;2.53;100.00;101000.63;5098485;28;20028;-48
2022/04/18 05:39:24;;;;;;;6.82;3.47;;;;;;;2.57;100.00;101002.06;5079683;28;20028;-52
2022/04/18 05:41:49;;;;;;;10.52;4.47;;;;;;;2.61;100.00;101004.28;5109338;28;20112;-48
2022/04/18 05:44:15;;;;;;;5.60;4.00;;;;;;;2.66;100.00;101006.53;5103758;28;20031;-49
2022/04/18 05:46:40;;;;;;;4.40;3.20;;;;;;;2.69;100.00;101008.06;5084287;28;20062;-47
2022/04/18 05:49:05;;;;;;;7.80;3.47;;;;;;;2.69;100.00;101006.28;5101421;28;20034;-52
2022/04/18 05:51:32;;;;;;;9.25;5.05;;;;;;;2.73;100.00;100999.00;5102150;28;20122;-48
2022/04/18 05:53:57;;;;;;;5.18;3.45;;;;;;;2.78;100.00;101004.69;5102672;28;20031;-49
2022/04/18 05:56:23;;;;;;;7.13;3.80;;;;;;;2.86;100.00;101002.25;5106250;28;20384;-49
2022/04/18 05:58:48;;;;;;;6.57;3.20;;;;;;;2.97;100.00;101010.06;5094418;28;20043;-48
2022/04/18 06:01:13;;;;;;;5.78;3.50;;;;;;;3.10;100.00;101017.72;5109353;28;20047;-50
2022/04/18 06:03:40;;;;;;;4.72;3.28;;;;;;;3.25;100.00;101020.81;5091907;28;20112;-48
2022/04/18 06:06:05;;;;;;;6.00;3.58;;;;;;;3.45;100.00;101025.19;5101946;28;20039;-48
2022/04/18 06:08:31;;;;;;;11.65;4.95;;;;;;;3.59;100.00;101026.63;5088057;28;20028;-50
2022/04/18 06:10:56;;;;;;;4.90;3.20;;;;;;;3.74;100.00;101024.47;5104845;28;20024;-52
2022/04/18 06:13:21;;;;;;;5.13;3.53;;;;;;;3.91;100.00;101023.81;5098875;28;20385;-47
2022/04/18 06:15:47;;;;;;;5.38;2.40;;;;;;;4.11;100.00;101024.72;5092653;28;20027;-49
2022/04/18 06:18:13;;;;;;;6.93;2.60;;;;;;;4.29;100.00;101019.63;5094593;28;20028;-49
2022/04/18 06:20:38;;;;;;;5.28;3.05;;;;;;;4.45;100.00;101024.31;5103541;28;20089;-53
2022/04/18 06:23:03;;;;;;;5.15;2.95;;;;;;;4.78;100.00;101033.59;5097912;28;20492;-50
2022/04/18 06:25:29;;;;;;;5.13;3.10;;;;;;;5.34;100.00;101042.44;5095869;28;20059;-48
2022/04/18 06:27:54;;;;;;;9.02;2.15;;;;;;;5.74;100.00;101027.38;5096012;28;20476;-48
2022/04/18 06:30:19;;;;;;;3.20;0.80;;;;;;;6.10;100.00;101033.56;5098621;28;20111;-50
2022/04/18 06:32:45;;;;;;;3.10;0.63;;;;;;;6.49;100.00;101035.91;5110124;28;20122;-47
2022/04/18 06:35:10;;;;;;;3.60;1.25;;;;;;;6.83;100.00;101035.22;5098983;28;20053;-48
2022/04/18 06:37:36;;;;;;;1.63;0.60;;;;;;;7.08;100.00;101044.97;5094052;28;20073;-49
2022/04/18 06:40:01;;;;;;;4.60;0.30;;;;;;;7.26;100.00;101042.28;5091169;28;20055;-49
2022/04/18 06:42:26;;;;;;;2.38;0.40;;;;;;;7.34;100.00;101038.88;5079073;28;20074;-53
2022/04/18 06:44:52;;;;;;;5.22;0.65;;;;;;;7.42;100.00;101042.38;5080173;28;20016;-49
2022/04/18 06:47:19;;;;;;;3.90;0.43;;;;;;;7.56;100.00;101037.47;5098103;28;20024;-50
2022/04/18 06:49:45;;;;;;;2.05;0.52;;;;;;;7.72;100.00;101034.09;5097264;28;20058;-50
2022/04/18 06:52:11;;;;;;;6.22;1.95;;;;;;;7.87;100.00;101037.78;5102416;28;20019;-47
2022/04/18 06:54:36;;;;;;;8.02;0.32;;;;;;;7.97;100.00;101030.56;5086135;28;20081;-50
2022/04/18 06:57:02;;;;;;;5.65;0.40;;;;;;;8.11;100.00;101041.50;5097168;28;20039;-53
2022/04/18 06:59:28;;;;;;;3.40;0.40;;;;;;;8.22;100.00;101031.44;5102314;28;20023;-48
2022/04/18 07:01:55;;;;;;;7.07;0.65;;;;;;;8.29;100.00;101034.28;5078444;28;20424;-50
2022/04/18 07:04:21;;;;;;;3.72;0.90;;;;;;;8.47;100.00;101021.78;5101826;28;20032;-49
2022/04/18 07:06:46;;;;;;;1.88;0.98;;;;;;;8.63;100.00;101020.97;5104567;28;20084;-50
2022/04/18 07:09:12;;;;;;;6.43;0.28;;;;;;;8.77;100.00;101016.81;5100138;28;20564;-52
2022/04/18 07:11:37;;;;;;;5.55;0.40;;;;;;;8.84;100.00;101023.09;5082462;28;20533;-52
2022/04/18 07:14:03;;;;;;;10.73;1.35;;;;;;;8.88;100.00;101020.94;5097368;28;20027;-51
2022/04/18 07:16:30;;;;;;;3.22;1.05;;;;;;;8.97;100.00;101027.06;5096903;28;20020;-52
2022/04/18 07:18:57;;;;;;;1.83;0.10;;;;;;;9.00;100.00;101021.44;5100386;28;20038;-52
2022/04/18 07:21:22;;;;;;;3.65;1.52;;;;;;;9.06;100.00;101026.03;5097173;28;20464;-52
2022/04/18 07:23:47;;;;;;;8.52;1.73;;;;;;;9.11;100.00;101029.00;5095737;28;20028;-50
2022/04/18 07:26:12;;;;;;;2.33;0.10;;;;;;;9.15;100.00;101033.81;5099515;28;20023;-48
2022/04/18 07:28:39;;;;;;;4.38;0.90;;;;;;;9.23;100.00;101032.97;5094547;28;20051;-49
2022/04/18 07:31:06;;;;;;;8.73;0.85;;;;;;;9.37;100.00;101032.28;5097970;28;20024;-48
2022/04/18 07:33:32;;;;;;;1.27;0.20;;;;;;;9.58;100.00;101038.84;5100728;28;20032;-48
2022/04/18 07:35:57;;;;;;;1.50;0.10;;;;;;;9.67;100.00;101031.69;5095549;28;20043;-48
2022/04/18 07:41:07;;;;;;;4.65;1.08;;;;;;;9.89;100.00;101035.41;5101830;28;20322;-53
2022/04/18 07:43:35;;;;;;;6.65;0.47;;;;;;;10.00;100.00;101030.53;5103314;28;20040;-54
2022/04/18 07:46:02;;;;;;;2.55;0.20;;;;;;;10.16;100.00;101026.97;5103346;28;20024;-49
2022/04/18 07:48:29;;;;;;;0.43;0.25;;;;;;;10.22;100.00;101013.03;5102151;28;20027;-49
2022/04/18 07:53:38;;;;;;;1.25;0.40;;;;;;;10.26;100.00;101021.44;5103597;28;20383;-49
2022/04/18 07:56:03;;;;;;;4.95;0.20;;;;;;;10.31;100.00;101018.31;5106192;28;20028;-49
2022/04/18 07:58:29;;;;;;;2.60;0.55;;;;;;;10.32;100.00;101012.81;5107266;28;20043;-49
2022/04/18 08:00:54;;;;;;;2.10;0.50;;;;;;;10.38;100.00;101027.22;5099711;28;20553;-55
2022/04/18 08:03:19;;;;;;;4.57;0.70;;;;;;;10.43;100.00;101017.72;5100601;28;20235;-53
2022/04/18 08:05:45;;;;;;;3.08;0.20;;;;;;;10.50;100.00;101019.66;5100915;28;20370;-54
2022/04/18 08:08:10;;;;;;;4.15;0.35;;;;;;;10.46;100.00;101025.31;5095011;28;20024;-49
2022/04/18 08:10:36;;;;;;;1.85;0.60;;;;;;;10.47;100.00;101020.84;5101083;28;20072;-53
2022/04/18 08:13:03;;;;;;;5.32;0.45;;;;;;;10.47;100.00;101023.47;5104088;28;20031;-50
2022/04/18 08:15:29;;;;;;;3.75;0.20;;;;;;;10.47;100.00;101023.47;5102602;28;20082;-54
2022/04/18 08:17:54;;;;;;;2.08;0.00;;;;;;;10.55;100.00;101017.28;5097597;28;20072;-52
2022/04/18 08:20:20;;;;;;;1.73;0.20;;;;;;;10.68;100.00;101018.34;5096718;28;20324;-51
2022/04/18 08:22:45;;;;;;;0.20;0.00;;;;;;;10.79;100.00;101017.13;5103237;28;20024;-52
2022/04/18 08:25:11;;;;;;;1.17;0.73;;;;;;;10.94;100.00;101022.44;5100605;28;20053;-51
2022/04/18 08:27:36;;;;;;;3.92;0.10;;;;;;;10.95;100.00;101018.78;5104780;28;20471;-55
2022/04/18 08:30:03;;;;;;;2.35;0.45;;;;;;;11.09;100.00;101019.81;5101026;28;20403;-53
2022/04/18 08:32:33;;;;;;;1.90;0.57;;;;;;;11.23;100.00;101020.81;5097563;28;20380;-49
2022/04/18 08:34:58;;;;;;;0.63;0.10;;;;;;;11.36;100.00;101015.72;5098019;28;20059;-50
2022/04/18 08:37:24;;;;;;;3.10;0.00;;;;;;;11.51;100.00;101013.88;5095458;28;20175;-48
2022/04/18 08:39:49;;;;;;;1.08;0.35;;;;;;;11.38;100.00;101018.19;5094647;28;20058;-51
2022/04/18 08:42:15;;;;;;;0.15;0.00;;;;;;;11.37;100.00;101016.53;5097872;28;20107;-53
2022/04/18 08:44:42;;;;;;;2.30;0.70;;;;;;;11.48;100.00;101024.84;5099792;28;20111;-53
2022/04/18 08:47:09;;;;;;;1.63;0.03;;;;;;;11.54;100.00;101018.81;5099308;28;20035;-53
2022/04/18 08:55:04;;;;;;;1.88;0.25;;;;;;;11.78;100.00;101019.53;5093924;28;20123;-49
2022/04/18 08:57:31;;;;;;;1.30;0.20;;;;;;;11.79;100.00;101026.47;5094582;28;20118;-49
2022/04/18 08:59:57;;;;;;;1.55;0.10;;;;;;;12.02;100.00;101022.91;5103774;28;20484;-51
2022/04/18 09:02:26;;;;;;;0.85;0.03;;;;;;;12.16;100.00;101006.91;5100143;28;20480;-48
2022/04/18 09:04:53;;;;;;;1.10;0.10;;;;;;;12.30;100.00;101017.69;5103748;28;20356;-54
2022/04/18 09:07:18;;;;;;;0.10;0.10;;;;;;;12.38;100.00;101007.75;5104047;28;20034;-52
2022/04/18 09:09:43;;;;;;;2.72;0.55;;;;;;;12.53;100.00;101009.53;5102589;28;20023;-48
2022/04/18 09:12:21;;;;;;;2.35;0.00;;;;;;;12.53;100.00;101015.66;5080517;28;20039;-51
2022/04/18 09:14:48;;;;;;;0.35;0.00;;;;;;;12.53;100.00;101013.00;5105928;28;20037;-49
2022/04/18 09:17:30;;;;;;;5.40;0.20;;;;;;;12.65;100.00;101010.66;5101237;28;20101;-49
2022/04/18 09:20:07;;;;;;;0.43;0.10;;;;;;;12.88;100.00;101015.72;5102377;28;20424;-46
2022/04/18 09:22:44;;;;;;;1.75;0.40;;;;;;;12.86;100.00;101021.25;5093817;28;20119;-49
2022/04/18 09:25:20;;;;;;;2.72;0.20;;;;;;;12.68;100.00;101020.91;5098857;28;20035;-52
2022/04/18 09:27:56;;;;;;;1.77;0.25;;;;;;;12.43;100.00;101018.63;5103827;28;20058;-53
2022/04/18 09:30:23;;;;;;;2.05;0.47;;;;;;;12.51;100.00;101019.53;5100699;28;20028;-47
2022/04/18 09:32:57;;;;;;;2.35;0.00;;;;;;;12.51;100.00;101014.19;5099353;28;20084;-47
2022/04/18 09:35:27;;;;;;;1.90;0.50;;;;;;;12.30;100.00;101018.50;5079092;28;20059;-49
2022/04/18 09:37:53;;;;;;;0.75;0.10;;;;;;;12.47;100.00;101019.09;5100089;28;20151;-52
2022/04/18 09:40:23;;;;;;;2.45;0.10;;;;;;;12.71;100.00;101015.19;5102005;28;20442;-49
2022/04/18 09:42:53;;;;;;;0.63;0.35;;;;;;;12.51;100.00;101015.03;5101186;28;20063;-50
2022/04/18 09:45:20;;;;;;;1.73;0.15;;;;;;;12.59;100.00;101019.38;5091388;28;20098;-50
2022/04/18 09:47:53;;;;;;;3.17;0.20;;;;;;;12.40;100.00;101010.22;5083662;28;20130;-50
2022/04/18 09:53:05;;;;;;;0.60;0.00;;;;;;;12.69;100.00;101016.41;5101260;28;20100;-51
2022/04/18 09:55:31;;;;;;;5.07;0.20;;;;;;;12.90;100.00;101005.72;5097487;28;20438;-46
2022/04/18 09:58:02;;;;;;;5.55;0.80;;;;;;;13.05;100.00;101006.44;5101925;28;20034;-49
2022/04/18 10:00:27;;;;;;;0.98;0.15;;;;;;;13.28;100.00;101006.22;5102185;28;20032;-47
2022/04/18 10:02:53;;;;;;;2.22;0.17;;;;;;;13.51;100.00;100997.13;5097233;28;20116;-47
2022/04/18 10:05:19;;;;;;;1.67;0.03;;;;;;;13.62;100.00;100995.75;5094580;28;20028;-45
2022/04/18 10:07:47;;;;;;;0.50;0.10;;;;;;;13.81;100.00;100997.69;5103106;28;20043;-48
2022/04/18 10:10:13;;;;;;;5.00;0.10;;;;;;;14.01;100.00;100999.56;5099557;28;20473;-47
2022/04/18 10:12:38;;;;;;;0.17;0.15;;;;;;;14.23;100.00;100990.41;5101304;28;20115;-46
2022/04/18 10:15:04;;;;;;;1.25;0.05;;;;;;;14.29;100.00;100991.44;5101840;28;20479;-52
2022/04/18 10:17:32;;;;;;;0.30;0.10;;;;;;;14.25;100.00;100991.03;5100751;28;20031;-47
2022/04/18 10:20:14;;;;;;;3.20;0.20;;;;;;;14.11;100.00;100998.16;5099509;28;21025;-46
2022/04/18 10:23:10;;;;;;;1.20;0.10;;;;;;;14.31;100.00;101000.88;5095618;28;20096;-50
2022/04/18 10:25:57;;;;;;;1.00;0.00;;;;;;;14.02;100.00;101002.03;5093993;28;20027;-50
2022/04/18 10:28:35;;;;;;;0.28;0.05;;;;;;;13.90;100.00;101003.63;5096012;28;20036;-49
2022/04/18 10:31:07;;;;;;;0.00;0.00;;;;;;;13.98;100.00;100998.13;5095262;28;20042;-51
2022/04/18 10:33:33;;;;;;;0.28;0.28;;;;;;;13.70;100.00;100998.22;5095341;28;20176;-46
2022/04/18 10:36:04;;;;;;;2.53;0.00;;;;;;;13.40;100.00;100997.66;5095680;28;20176;-50
2022/04/18 10:38:33;;;;;;;3.03;0.20;;;;;;;13.48;100.00;100993.03;5097774;28;20074;-49
2022/04/18 10:41:33;;;;;;;0.20;0.00;;;;;;;13.86;100.00;100994.38;5091287;28;20087;-53
2022/04/18 10:44:05;;;;;;;0.95;0.30;;;;;;;14.01;100.00;101000.38;5093018;28;20491;-51
2022/04/18 10:46:30;;;;;;;1.08;0.10;;;;;;;13.77;100.00;100992.94;5096329;28;20035;-52
2022/04/18 10:49:00;;;;;;;0.50;0.32;;;;;;;13.86;100.00;100997.06;5089277;28;20485;-48
2022/04/18 10:51:50;;;;;;;2.92;0.40;;;;;;;14.24;100.00;100993.88;5100264;28;20032;-48
2022/04/18 10:54:33;;;;;;;0.10;0.05;;;;;;;14.22;100.00;100991.41;5089155;28;20486;-49
2022/04/18 10:57:11;;;;;;;0.77;0.10;;;;;;;14.10;100.00;100983.19;5095928;28;20407;-50
2022/04/18 10:59:38;;;;;;;0.25;0.00;;;;;;;14.14;100.00;100979.06;5093881;28;20063;-50
2022/04/18 11:02:05;;;;;;;0.10;0.00;;;;;;;14.21;100.00;100978.28;5091714;28;20518;-49
2022/04/18 11:04:31;;;;;;;5.72;0.10;;;;;;;14.27;100.00;100975.63;5094667;28;20042;-49
2022/04/18 11:06:59;;;;;;;0.30;0.00;;;;;;;14.63;100.00;100970.94;5092416;28;20088;-51
2022/04/18 11:09:27;;;;;;;2.05;0.15;;;;;;;14.77;100.00;100972.59;5095617;28;20536;-54
2022/04/18 11:11:52;;;;;;;3.78;0.15;;;;;;;14.82;100.00;100967.47;5095535;28;20114;-54
2022/04/18 11:14:21;;;;;;;4.90;0.00;;;;;;;14.78;100.00;100968.91;5094637;28;20118;-53
2022/04/18 11:16:48;;;;;;;4.53;0.50;;;;;;;14.93;100.00;100960.66;5093629;28;20031;-50
2022/04/18 11:19:13;;;;;;;1.58;0.40;;;;;;;15.25;100.00;100969.63;5089788;28;20039;-50
2022/04/18 11:21:58;;;;;;;1.85;0.28;;;;;;;15.45;100.00;100959.69;5082174;28;20028;-50
2022/04/18 11:24:48;;;;;;;0.20;0.05;;;;;;;15.35;100.00;100970.00;5075049;28;20035;-50
2022/04/18 11:27:18;;;;;;;0.85;0.00;;;;;;;15.69;100.00;100966.22;5090175;28;20170;-49
2022/04/18 11:29:45;;;;;;;1.02;0.50;;;;;;;15.42;100.00;100970.81;5092787;28;20421;-49
2022/04/18 11:32:16;;;;;;;1.30;0.35;;;;;;;15.52;100.00;100967.69;5087447;28;20032;-51
2022/04/18 11:34:47;;;;;;;5.57;0.67;;;;;;;15.79;100.00;100960.41;5096379;28;20032;-52
2022/04/18 11:37:24;;;;;;;2.08;0.65;;;;;;;15.58;100.00;100952.66;5085821;28;20847;-50
2022/04/18 11:39:52;;;;;;;0.52;0.10;;;;;;;15.91;100.00;100948.00;5093013;28;20024;-51
2022/04/18 11:42:21;;;;;;;0.50;0.32;;;;;;;16.25;100.00;100943.25;5092488;28;20533;-49
2022/04/18 11:44:48;;;;;;;0.17;0.10;;;;;;;16.44;100.00;100946.78;5092878;28;20092;-51